createdAt,value
2022-07-29T00:00:58.748Z,100.00
2022-07-29T00:03:25.612Z,100.00
2022-07-29T00:05:55.112Z,100.00
2022-07-29T00:08:21.926Z,100.00
2022-07-29T00:10:48.922Z,100.00
2022-07-29T00:13:15.573Z,100.00
2022-07-29T00:15:42.431Z,100.00
2022-07-29T00:18:09.565Z,100.00
2022-07-29T00:20:36.267Z,100.00
2022-07-29T00:23:03.124Z,100.00
2022-07-29T00:25:31.143Z,100.00
2022-07-29T00:28:00.673Z,100.00
2022-07-29T00:30:27.325Z,100.00
2022-07-29T00:32:54.185Z,100.00
2022-07-29T00:35:39.420Z,100.00
2022-07-29T00:38:06.423Z,100.00
2022-07-29T00:40:33.066Z,100.00
2022-07-29T00:43:00.822Z,100.00
2022-07-29T00:45:27.515Z,100.00
2022-07-29T00:47:54.666Z,100.00
2022-07-29T00:50:22.566Z,100.00
2022-07-29T00:52:49.716Z,100.00
2022-07-29T00:55:16.968Z,100.00
2022-07-29T00:57:44.855Z,100.00
2022-07-29T01:00:13.320Z,100.00
2022-07-29T01:02:40.147Z,100.00
2022-07-29T01:05:07.976Z,100.00
2022-07-29T01:07:38.403Z,100.00
2022-07-29T01:10:06.613Z,100.00
2022-07-29T01:12:34.688Z,100.00
2022-07-29T01:15:03.525Z,100.00
2022-07-29T01:17:33.163Z,100.00
2022-07-29T01:20:03.075Z,100.00
2022-07-29T01:22:36.569Z,100.00
2022-07-29T01:25:22.048Z,100.00
2022-07-29T01:28:02.362Z,100.00
2022-07-29T01:30:31.701Z,100.00
2022-07-29T01:33:01.419Z,100.00
2022-07-29T01:35:49.254Z,100.00
2022-07-29T01:38:22.187Z,100.00
2022-07-29T01:40:52.450Z,100.00
2022-07-29T01:43:24.834Z,100.00
2022-07-29T01:46:01.413Z,100.00
2022-07-29T01:48:28.157Z,100.00
2022-07-29T01:50:57.397Z,100.00
2022-07-29T01:53:37.613Z,100.00
2022-07-29T01:56:07.787Z,100.00
2022-07-29T01:58:36.816Z,100.00
2022-07-29T02:01:03.870Z,100.00
2022-07-29T02:03:32.966Z,100.00
2022-07-29T02:06:01.092Z,100.00
2022-07-29T02:08:29.211Z,100.00
2022-07-29T02:10:56.354Z,100.00
2022-07-29T02:13:24.753Z,100.00
2022-07-29T02:15:52.415Z,100.00
2022-07-29T02:18:19.971Z,100.00
2022-07-29T02:20:49.303Z,100.00
2022-07-29T02:23:20.373Z,100.00
2022-07-29T02:25:49.800Z,100.00
2022-07-29T02:28:18.602Z,100.00
2022-07-29T02:30:46.621Z,100.00
2022-07-29T02:33:15.288Z,100.00
2022-07-29T02:35:42.626Z,100.00
2022-07-29T02:38:30.989Z,100.00
2022-07-29T02:40:58.473Z,100.00
2022-07-29T02:43:27.389Z,100.00
2022-07-29T02:45:56.135Z,100.00
2022-07-29T02:48:28.632Z,100.00
2022-07-29T02:50:59.427Z,100.00
2022-07-29T02:53:26.452Z,100.00
2022-07-29T02:55:57.454Z,100.00
2022-07-29T02:58:32.184Z,100.00
2022-07-29T03:01:02.326Z,100.00
2022-07-29T03:03:31.200Z,100.00
2022-07-29T03:05:59.104Z,100.00
2022-07-29T03:08:25.972Z,100.00
2022-07-29T03:10:53.280Z,100.00
2022-07-29T03:13:20.752Z,100.00
2022-07-29T03:15:48.315Z,100.00
2022-07-29T03:18:15.833Z,100.00
2022-07-29T03:20:43.145Z,100.00
2022-07-29T03:23:10.039Z,100.00
2022-07-29T03:25:37.786Z,100.00
2022-07-29T03:28:05.657Z,100.00
2022-07-29T03:30:32.379Z,100.00
2022-07-29T03:32:59.156Z,100.00
2022-07-29T03:35:25.891Z,100.00
2022-07-29T03:37:52.611Z,100.00
2022-07-29T03:40:22.603Z,100.00
2022-07-29T03:42:50.968Z,100.00
2022-07-29T03:45:19.843Z,100.00
2022-07-29T03:47:50.595Z,100.00
2022-07-29T03:50:20.570Z,100.00
2022-07-29T03:52:47.781Z,100.00
2022-07-29T03:55:15.162Z,100.00
2022-07-29T03:57:42.702Z,100.00
2022-07-29T04:00:09.989Z,100.00
2022-07-29T04:02:37.077Z,100.00
2022-07-29T04:05:03.943Z,100.00
2022-07-29T04:07:30.845Z,100.00
2022-07-29T04:09:57.889Z,100.00
2022-07-29T04:12:24.695Z,100.00
2022-07-29T04:14:51.446Z,100.00
2022-07-29T04:17:18.126Z,100.00
2022-07-29T04:19:44.798Z,100.00
2022-07-29T04:22:11.660Z,100.00
2022-07-29T04:24:42.844Z,100.00
2022-07-29T04:27:13.886Z,100.00
2022-07-29T04:29:57.068Z,100.00
2022-07-29T04:32:25.181Z,100.00
2022-07-29T04:34:51.865Z,100.00
2022-07-29T04:37:18.651Z,100.00
2022-07-29T04:39:45.427Z,100.00
2022-07-29T04:42:12.405Z,100.00
2022-07-29T04:44:39.947Z,100.00
2022-07-29T04:47:10.245Z,100.00
2022-07-29T04:49:39.485Z,100.00
2022-07-29T04:52:06.641Z,100.00
2022-07-29T04:54:33.414Z,100.00
2022-07-29T04:57:02.704Z,100.00
2022-07-29T04:59:29.632Z,100.00
2022-07-29T05:01:56.465Z,100.00
2022-07-29T05:04:24.082Z,100.00
2022-07-29T05:06:50.749Z,100.00
2022-07-29T05:09:17.468Z,100.00
2022-07-29T05:11:44.394Z,100.00
2022-07-29T05:14:11.085Z,100.00
2022-07-29T05:16:37.844Z,100.00
2022-07-29T05:19:04.593Z,100.00
2022-07-29T05:21:31.446Z,100.00
2022-07-29T05:23:58.023Z,100.00
2022-07-29T05:26:24.711Z,100.00
2022-07-29T05:28:51.673Z,100.00
2022-07-29T05:31:18.662Z,100.00
2022-07-29T05:33:45.420Z,100.00
2022-07-29T05:36:12.726Z,100.00
2022-07-29T05:38:39.416Z,100.00
2022-07-29T05:41:06.719Z,100.00
2022-07-29T05:43:33.388Z,100.00
2022-07-29T05:46:01.414Z,100.00
2022-07-29T05:48:28.150Z,100.00
2022-07-29T05:50:55.751Z,100.00
2022-07-29T05:53:23.154Z,100.00
2022-07-29T05:55:50.387Z,100.00
2022-07-29T05:58:17.170Z,100.00
2022-07-29T06:00:45.096Z,100.00
2022-07-29T06:03:12.002Z,100.00
2022-07-29T06:05:38.739Z,100.00
2022-07-29T06:08:08.631Z,100.00
2022-07-29T06:10:36.261Z,100.00
2022-07-29T06:13:03.095Z,100.00
2022-07-29T06:15:29.785Z,100.00
2022-07-29T06:17:58.964Z,100.00
2022-07-29T06:20:31.452Z,100.00
2022-07-29T06:22:58.559Z,100.00
2022-07-29T06:25:25.167Z,100.00
2022-07-29T06:27:51.905Z,100.00
2022-07-29T06:30:18.601Z,100.00
2022-07-29T06:32:45.386Z,100.00
2022-07-29T06:35:39.116Z,100.00
2022-07-29T06:37:59.721Z,100.00
2022-07-29T06:40:45.442Z,100.00
2022-07-29T06:43:12.486Z,100.00
2022-07-29T06:45:42.469Z,100.00
2022-07-29T06:48:09.859Z,100.00
2022-07-29T06:50:37.446Z,100.00
2022-07-29T06:53:04.914Z,100.00
2022-07-29T06:55:32.360Z,100.00
2022-07-29T06:58:00.681Z,100.00
2022-07-29T07:00:28.159Z,100.00
2022-07-29T07:02:55.480Z,100.00
2022-07-29T07:05:22.863Z,100.00
2022-07-29T07:07:49.671Z,100.00
2022-07-29T07:10:16.385Z,100.00
2022-07-29T07:12:43.069Z,100.00
2022-07-29T07:15:10.283Z,100.00
2022-07-29T07:17:38.681Z,100.00
2022-07-29T07:20:06.445Z,100.00
2022-07-29T07:22:38.430Z,100.00
2022-07-29T07:25:06.001Z,100.00
2022-07-29T07:27:32.595Z,100.00
2022-07-29T07:30:02.228Z,100.00
2022-07-29T07:32:29.171Z,100.00
2022-07-29T07:34:59.908Z,100.00
2022-07-29T07:37:28.300Z,100.00
2022-07-29T07:39:55.058Z,100.00
2022-07-29T07:42:22.352Z,100.00
2022-07-29T07:45:12.110Z,100.00
2022-07-29T07:47:38.009Z,100.00
2022-07-29T07:50:09.225Z,100.00
2022-07-29T07:52:46.526Z,100.00
2022-07-29T07:55:14.993Z,100.00
2022-07-29T07:57:41.631Z,100.00
2022-07-29T08:00:09.929Z,100.00
2022-07-29T08:02:40.075Z,100.00
2022-07-29T08:05:08.435Z,100.00
2022-07-29T08:07:39.833Z,100.00
2022-07-29T08:10:06.733Z,100.00
2022-07-29T08:12:33.848Z,100.00
2022-07-29T08:15:00.877Z,100.00
2022-07-29T08:17:28.291Z,100.00
2022-07-29T08:19:55.497Z,100.00
2022-07-29T08:22:22.634Z,100.00
2022-07-29T08:24:56.786Z,100.00
2022-07-29T08:30:12.613Z,100.00
2022-07-29T08:32:55.650Z,100.00
2022-07-29T08:35:23.768Z,100.00
2022-07-29T08:37:51.434Z,100.00
2022-07-29T08:40:18.534Z,100.00
2022-07-29T08:42:45.215Z,100.00
2022-07-29T08:45:13.729Z,100.00
2022-07-29T08:47:44.074Z,100.00
2022-07-29T08:50:11.717Z,100.00
2022-07-29T08:52:39.915Z,100.00
2022-07-29T08:55:07.556Z,100.00
2022-07-29T08:57:35.393Z,100.00
2022-07-29T09:00:11.452Z,100.00
2022-07-29T09:02:44.179Z,100.00
2022-07-29T09:05:13.773Z,100.00
2022-07-29T09:07:40.870Z,100.00
2022-07-29T09:10:08.132Z,100.00
2022-07-29T09:12:38.060Z,100.00
2022-07-29T09:15:05.341Z,100.00
2022-07-29T09:17:45.914Z,100.00
2022-07-29T09:20:14.376Z,100.00
2022-07-29T09:22:42.184Z,100.00
2022-07-29T09:25:09.631Z,100.00
2022-07-29T09:27:36.826Z,100.00
2022-07-29T09:30:08.504Z,100.00
2022-07-29T09:32:54.702Z,100.00
2022-07-29T09:35:22.993Z,100.00
2022-07-29T09:37:50.240Z,100.00
2022-07-29T09:40:18.308Z,100.00
2022-07-29T09:42:48.380Z,100.00
2022-07-29T09:45:27.922Z,100.00
2022-07-29T09:47:58.449Z,100.00
2022-07-29T09:50:36.115Z,100.00
2022-07-29T09:53:04.537Z,95.83
2022-07-29T09:55:31.142Z,95.64
2022-07-29T09:58:28.971Z,96.25
2022-07-29T10:00:56.602Z,92.57
2022-07-29T10:03:24.007Z,85.29
2022-07-29T10:06:07.411Z,79.33
2022-07-29T10:08:35.213Z,71.91
2022-07-29T10:11:11.005Z,65.75
2022-07-29T10:13:38.447Z,61.68
2022-07-29T10:16:05.531Z,57.44
2022-07-29T10:18:33.203Z,56.30
2022-07-29T10:21:02.179Z,54.10
2022-07-29T10:23:46.292Z,51.56
2022-07-29T10:26:14.047Z,49.42
2022-07-29T10:28:40.928Z,49.48
2022-07-29T10:31:13.801Z,48.56
2022-07-29T10:33:56.042Z,48.00
2022-07-29T10:36:34.075Z,48.10
2022-07-29T10:39:13.074Z,48.73
2022-07-29T10:41:59.152Z,47.99
2022-07-29T10:44:28.772Z,46.45
2022-07-29T10:46:55.728Z,47.19
2022-07-29T10:49:27.929Z,47.57
2022-07-29T10:52:02.211Z,47.88
2022-07-29T10:54:36.423Z,48.32
2022-07-29T10:57:25.602Z,47.55
2022-07-29T11:00:16.986Z,46.29
2022-07-29T11:02:45.284Z,45.67
2022-07-29T11:05:20.406Z,46.03
2022-07-29T11:08:06.280Z,45.73
2022-07-29T11:10:33.427Z,46.92
2022-07-29T11:13:00.088Z,46.76
2022-07-29T11:18:17.456Z,46.17
2022-07-29T11:20:50.078Z,47.77
2022-07-29T11:23:22.776Z,47.56
2022-07-29T11:26:08.985Z,46.83
2022-07-29T11:28:37.067Z,44.87
2022-07-29T11:31:05.951Z,44.73
2022-07-29T11:39:36.900Z,45.90
2022-07-29T11:42:32.260Z,46.63
2022-07-29T11:45:42.025Z,44.25
2022-07-29T11:47:55.563Z,43.62
2022-07-29T11:50:31.543Z,44.34
2022-07-29T11:53:02.904Z,44.07
2022-07-29T11:55:38.780Z,44.03
2022-07-29T11:58:27.311Z,42.75
2022-07-29T12:00:55.622Z,42.79
2022-07-29T12:03:35.119Z,42.31
2022-07-29T12:06:23.865Z,43.57
2022-07-29T12:07:01.472Z,44.64
2022-07-29T12:08:50.672Z,45.29
2022-07-29T12:11:22.693Z,45.47
2022-07-29T12:13:51.285Z,45.60
2022-07-29T12:16:25.584Z,45.78
2022-07-29T12:18:59.880Z,44.99
2022-07-29T12:21:28.755Z,45.46
2022-07-29T12:23:57.071Z,46.27
2022-07-29T12:26:29.189Z,47.31
2022-07-29T12:28:55.931Z,47.62
2022-07-29T12:31:43.406Z,48.16
2022-07-29T12:34:13.457Z,48.58
2022-07-29T12:36:40.363Z,47.61
2022-07-29T12:39:08.010Z,47.86
2022-07-29T12:41:35.383Z,49.21
2022-07-29T12:44:02.643Z,47.54
2022-07-29T12:46:29.946Z,48.84
2022-07-29T12:48:57.906Z,49.41
2022-07-29T12:51:35.071Z,48.32
2022-07-29T12:54:06.788Z,48.50
2022-07-29T12:56:42.774Z,49.10
2022-07-29T12:59:18.067Z,46.28
2022-07-29T13:01:45.510Z,46.35
2022-07-29T13:04:13.518Z,46.65
2022-07-29T13:06:42.383Z,46.76
2022-07-29T13:09:15.095Z,43.44
2022-07-29T13:11:48.777Z,43.87
2022-07-29T13:14:33.254Z,44.83
2022-07-29T13:17:07.041Z,43.18
2022-07-29T13:19:44.786Z,43.75
2022-07-29T13:22:12.536Z,43.79
2022-07-29T13:24:51.739Z,43.14
2022-07-29T13:27:21.381Z,43.45
2022-07-29T13:29:48.514Z,44.81
2022-07-29T13:32:15.733Z,42.36
2022-07-29T13:34:42.563Z,43.49
2022-07-29T13:37:09.480Z,42.18
2022-07-29T13:39:38.275Z,42.70
2022-07-29T13:42:10.532Z,42.96
2022-07-29T13:44:37.799Z,41.34
2022-07-29T13:47:04.743Z,42.15
2022-07-29T13:49:32.661Z,41.96
2022-07-29T13:51:59.717Z,42.62
2022-07-29T13:54:27.720Z,43.45
2022-07-29T13:56:54.609Z,44.87
2022-07-29T13:59:21.511Z,42.66
2022-07-29T14:01:49.020Z,42.10
2022-07-29T14:04:16.539Z,42.28
2022-07-29T14:06:43.330Z,42.30
2022-07-29T14:09:10.268Z,42.38
2022-07-29T14:11:39.410Z,43.56
2022-07-29T14:14:07.561Z,43.10
2022-07-29T14:16:38.036Z,43.23
2022-07-29T14:19:07.315Z,42.68
2022-07-29T14:21:34.148Z,43.39
2022-07-29T14:24:02.605Z,45.70
2022-07-29T14:26:40.950Z,44.74
2022-07-29T14:29:13.225Z,45.93
2022-07-29T14:31:40.125Z,46.84
2022-07-29T14:34:06.888Z,45.01
2022-07-29T14:36:33.650Z,44.55
2022-07-29T14:39:01.358Z,43.62
2022-07-29T14:41:29.268Z,42.67
2022-07-29T14:43:56.233Z,41.78
2022-07-29T14:46:23.596Z,42.51
2022-07-29T14:48:50.597Z,41.26
2022-07-29T14:51:17.268Z,41.16
2022-07-29T14:53:44.295Z,40.64
2022-07-29T14:56:35.423Z,39.20
2022-07-29T14:58:58.680Z,38.84
2022-07-29T15:01:25.738Z,40.41
2022-07-29T15:03:57.982Z,40.19
2022-07-29T15:06:27.153Z,40.34
2022-07-29T15:08:54.977Z,41.34
2022-07-29T15:11:21.855Z,41.18
2022-07-29T15:13:49.211Z,40.33
2022-07-29T15:16:15.985Z,40.88
2022-07-29T15:18:43.211Z,40.21
2022-07-29T15:21:10.906Z,39.99
2022-07-29T15:23:37.604Z,40.13
2022-07-29T15:26:04.734Z,39.84
2022-07-29T15:28:32.620Z,39.48
2022-07-29T15:30:59.414Z,42.21
2022-07-29T15:33:27.476Z,41.51
2022-07-29T15:35:55.429Z,44.70
2022-07-29T15:38:28.993Z,44.89
2022-07-29T15:40:55.942Z,46.71
2022-07-29T15:43:22.972Z,47.17
2022-07-29T15:46:22.866Z,46.64
2022-07-29T15:48:51.857Z,47.10
2022-07-29T15:51:18.744Z,47.83
2022-07-29T15:53:53.466Z,49.54
2022-07-29T15:56:21.178Z,50.42
2022-07-29T15:58:49.155Z,51.83
2022-07-29T16:01:17.079Z,51.23
2022-07-29T16:03:46.236Z,51.10
2022-07-29T16:06:13.732Z,53.23
2022-07-29T16:08:40.377Z,56.29
2022-07-29T16:11:07.329Z,54.48
2022-07-29T16:13:34.022Z,56.42
2022-07-29T16:16:02.511Z,56.40
2022-07-29T16:18:30.573Z,57.36
2022-07-29T16:20:58.084Z,60.06
2022-07-29T16:23:24.889Z,62.21
2022-07-29T16:26:00.857Z,59.42
2022-07-29T16:28:30.842Z,61.12
2022-07-29T16:30:57.606Z,59.03
2022-07-29T16:33:24.625Z,58.94
2022-07-29T16:35:51.854Z,59.39
2022-07-29T16:38:19.143Z,58.02
2022-07-29T16:40:47.274Z,58.19
2022-07-29T16:43:14.137Z,58.14
2022-07-29T16:45:46.084Z,55.82
2022-07-29T16:48:18.130Z,55.32
2022-07-29T16:50:45.926Z,55.66
2022-07-29T16:53:13.077Z,53.45
2022-07-29T16:55:42.421Z,49.91
2022-07-29T16:58:09.592Z,51.80
2022-07-29T17:00:36.512Z,50.74
2022-07-29T17:03:03.516Z,51.84
2022-07-29T17:05:52.751Z,51.14
2022-07-29T17:08:20.300Z,53.69
2022-07-29T17:10:47.657Z,50.96
2022-07-29T17:13:14.626Z,51.08
2022-07-29T17:15:43.131Z,51.02
2022-07-29T17:18:12.445Z,50.65
2022-07-29T17:20:41.339Z,50.53
2022-07-29T17:23:08.049Z,50.07
2022-07-29T17:25:36.882Z,51.28
2022-07-29T17:28:03.580Z,52.28
2022-07-29T17:30:30.316Z,50.24
2022-07-29T17:32:58.980Z,49.27
2022-07-29T17:35:44.542Z,48.79
2022-07-29T17:38:11.648Z,48.86
2022-07-29T17:40:38.339Z,47.82
2022-07-29T17:43:05.124Z,47.43
2022-07-29T17:45:50.287Z,46.53
2022-07-29T17:48:18.031Z,46.69
2022-07-29T17:50:44.788Z,46.25
2022-07-29T17:53:15.978Z,45.36
2022-07-29T17:55:48.616Z,46.34
2022-07-29T17:58:15.976Z,45.05
2022-07-29T18:00:43.310Z,44.23
2022-07-29T18:03:10.719Z,44.42
2022-07-29T18:05:38.053Z,43.93
2022-07-29T18:08:05.868Z,44.87
2022-07-29T18:10:32.714Z,43.55
2022-07-29T18:12:59.710Z,44.10
2022-07-29T18:15:26.387Z,44.19
2022-07-29T18:17:57.684Z,43.50
2022-07-29T18:20:25.929Z,43.28
2022-07-29T18:22:52.738Z,44.78
2022-07-29T18:25:19.724Z,43.93
2022-07-29T18:27:46.659Z,44.31
2022-07-29T18:30:18.123Z,44.94
2022-07-29T18:33:04.942Z,45.12
2022-07-29T18:35:32.858Z,45.83
2022-07-29T18:38:02.310Z,43.96
2022-07-29T18:40:29.978Z,43.91
2022-07-29T18:42:56.658Z,43.12
2022-07-29T18:45:28.631Z,44.26
2022-07-29T18:47:56.457Z,45.22
2022-07-29T18:50:29.234Z,46.11
2022-07-29T18:52:58.784Z,47.16
2022-07-29T18:55:26.450Z,47.66
2022-07-29T18:57:55.735Z,46.80
2022-07-29T19:00:24.236Z,47.37
2022-07-29T19:02:51.147Z,49.49
2022-07-29T19:05:20.851Z,49.89
2022-07-29T19:07:47.571Z,51.32
2022-07-29T19:10:15.826Z,53.82
2022-07-29T19:12:42.710Z,55.42
2022-07-29T19:15:10.716Z,57.54
2022-07-29T19:17:38.756Z,58.45
2022-07-29T19:20:07.262Z,56.87
2022-07-29T19:22:34.257Z,57.76
2022-07-29T19:25:01.053Z,57.77
2022-07-29T19:27:27.889Z,57.97
2022-07-29T19:29:58.975Z,57.63
2022-07-29T19:32:26.366Z,59.78
2022-07-29T19:35:11.759Z,61.12
2022-07-29T19:37:38.739Z,55.28
2022-07-29T19:40:07.251Z,55.21
2022-07-29T19:42:34.395Z,50.93
2022-07-29T19:45:01.063Z,50.54
2022-07-29T19:47:28.062Z,50.17
2022-07-29T19:49:54.717Z,50.41
2022-07-29T19:52:21.616Z,49.97
2022-07-29T19:54:48.367Z,50.88
2022-07-29T19:57:15.384Z,50.95
2022-07-29T19:59:42.161Z,51.90
2022-07-29T20:02:12.417Z,53.44
2022-07-29T20:04:39.355Z,53.16
2022-07-29T20:07:06.917Z,53.87
2022-07-29T20:09:33.654Z,55.58
2022-07-29T20:12:00.430Z,55.19
2022-07-29T20:14:27.163Z,55.41
2022-07-29T20:16:54.539Z,55.24
2022-07-29T20:19:21.399Z,56.30
2022-07-29T20:21:48.283Z,56.38
2022-07-29T20:24:15.061Z,58.50
2022-07-29T20:26:42.614Z,59.13
2022-07-29T20:29:09.275Z,63.74
2022-07-29T20:31:36.684Z,68.01
2022-07-29T20:34:04.621Z,67.20
2022-07-29T20:36:31.598Z,66.26
2022-07-29T20:39:00.153Z,64.30
2022-07-29T20:41:27.077Z,63.87
2022-07-29T20:43:53.892Z,65.43
2022-07-29T20:46:21.378Z,66.05
2022-07-29T20:48:48.812Z,66.57
2022-07-29T20:51:15.707Z,67.20
2022-07-29T20:53:42.309Z,67.75
2022-07-29T20:56:09.105Z,68.48
2022-07-29T20:58:37.043Z,68.80
2022-07-29T21:01:05.401Z,71.44
2022-07-29T21:03:32.673Z,72.90
2022-07-29T21:06:00.301Z,76.72
2022-07-29T21:08:26.941Z,79.85
2022-07-29T21:10:54.089Z,84.21
2022-07-29T21:13:20.943Z,86.94
2022-07-29T21:15:49.909Z,91.13
2022-07-29T21:18:37.230Z,92.42
2022-07-29T21:21:04.811Z,93.80
2022-07-29T21:23:31.580Z,98.10
2022-07-29T21:25:58.398Z,100.00
2022-07-29T21:28:29.398Z,100.00
2022-07-29T21:31:00.651Z,100.00
2022-07-29T21:33:30.024Z,100.00
2022-07-29T21:36:26.761Z,100.00
2022-07-29T21:38:44.584Z,99.17
2022-07-29T21:41:12.648Z,94.08
2022-07-29T21:43:42.332Z,92.95
2022-07-29T21:46:09.317Z,92.73
2022-07-29T21:48:37.088Z,91.16
2022-07-29T21:51:06.064Z,92.64
2022-07-29T21:53:32.860Z,92.58
2022-07-29T21:55:59.676Z,91.70
2022-07-29T21:58:26.341Z,91.50
2022-07-29T22:00:54.138Z,92.24
2022-07-29T22:03:20.891Z,91.46
2022-07-29T22:05:47.606Z,92.22
2022-07-29T22:08:14.762Z,94.80
2022-07-29T22:10:42.593Z,95.49
2022-07-29T22:13:10.748Z,97.52
2022-07-29T22:15:37.593Z,100.00
2022-07-29T22:18:04.484Z,100.00
2022-07-29T22:20:31.320Z,100.00
2022-07-29T22:22:58.035Z,100.00
2022-07-29T22:25:24.786Z,100.00
2022-07-29T22:27:51.473Z,100.00
2022-07-29T22:30:18.546Z,100.00
2022-07-29T22:32:45.243Z,100.00
2022-07-29T22:35:12.367Z,100.00
2022-07-29T22:37:39.346Z,100.00
2022-07-29T22:40:06.544Z,100.00
2022-07-29T22:42:33.801Z,100.00
2022-07-29T22:45:00.582Z,100.00
2022-07-29T22:47:46.382Z,100.00
2022-07-29T22:50:14.202Z,100.00
2022-07-29T22:52:40.894Z,100.00
2022-07-29T22:55:07.808Z,100.00
2022-07-29T22:57:34.512Z,100.00
2022-07-29T23:00:02.670Z,100.00
2022-07-29T23:02:29.343Z,100.00
2022-07-29T23:04:57.398Z,100.00
2022-07-29T23:07:24.386Z,100.00
2022-07-29T23:09:51.176Z,100.00
2022-07-29T23:12:17.940Z,100.00
2022-07-29T23:14:44.676Z,100.00
2022-07-29T23:17:11.449Z,100.00
2022-07-29T23:19:38.364Z,100.00
2022-07-29T23:22:05.004Z,100.00
2022-07-29T23:24:31.722Z,100.00
2022-07-29T23:26:58.815Z,100.00
2022-07-29T23:29:26.681Z,100.00
2022-07-29T23:31:53.437Z,100.00
2022-07-29T23:34:20.220Z,100.00
2022-07-29T23:36:46.880Z,100.00
2022-07-29T23:39:13.729Z,100.00
2022-07-29T23:41:40.576Z,100.00
2022-07-29T23:44:07.352Z,100.00
2022-07-29T23:46:34.123Z,100.00
2022-07-29T23:49:01.002Z,100.00
2022-07-29T23:51:29.256Z,100.00
2022-07-29T23:53:56.259Z,100.00
2022-07-29T23:56:23.214Z,100.00
2022-07-29T23:58:51.288Z,100.00
